Time;durP1;ratioP1;P1;durP2;ratioP2;P2;SDS_P1;SDS_P2;PMS_P1;PMS_P2;Temp;Humidity;BMP_temperature;BMP_pressure;BME280_temperature;BME280_humidity;BME280_pressure;Samples;Min_cycle;Max_cycle;Signal;HPM_P1;HPM_P2
2024/05/06 00:01:00;;;;;;;5.95;4.03;;;;;;;;;;5467618;26;20082;-83
2024/05/06 00:03:36;;;;;;;8.02;3.45;;;;;;;;;;5520629;26;20324;-83
2024/05/06 00:06:09;;;;;;;5.97;3.63;;;;;;;;;;5486711;26;20386;-83
2024/05/06 00:08:39;;;;;;;6.00;3.85;;;;;;;;;;5515238;26;20020;-83
2024/05/06 00:11:11;;;;;;;4.80;3.60;;;;;;;;;;5516414;26;19998;-83
2024/05/06 00:13:41;;;;;;;5.60;3.47;;;;;;;;;;5471833;26;20016;-83
2024/05/06 00:16:11;;;;;;;5.40;3.42;;;;;;;;;;5498703;26;20004;-83
2024/05/06 00:18:42;;;;;;;7.50;3.70;;;;;;;;;;5497005;26;20001;-83
2024/05/06 00:21:13;;;;;;;4.70;3.50;;;;;;;;;;5469539;26;20024;-83
2024/05/06 00:23:43;;;;;;;4.80;3.42;;;;;;;;;;5502096;26;20001;-83
2024/05/06 00:26:13;;;;;;;5.57;3.78;;;;;;;;;;5495620;27;20316;-83
2024/05/06 00:28:44;;;;;;;6.80;3.97;;;;;;;;;;5465073;27;19998;-83
2024/05/06 00:31:16;;;;;;;6.63;4.03;;;;;;;;;;5494001;27;20016;-83
2024/05/06 00:33:49;;;;;;;8.57;4.10;;;;;;;;;;5495210;27;20001;-83
2024/05/06 00:36:24;;;;;;;6.47;4.40;;;;;;;;;;5464535;27;20044;-83
2024/05/06 00:38:56;;;;;;;5.72;4.20;;;;;;;;;;5494893;26;20359;-83
2024/05/06 00:41:26;;;;;;;6.35;4.38;;;;;;;;;;5495019;27;19993;-83
2024/05/06 00:43:57;;;;;;;6.43;4.43;;;;;;;;;;5495783;27;20020;-83
2024/05/06 00:46:27;;;;;;;6.00;4.68;;;;;;;;;;5466035;27;20001;-83
2024/05/06 00:48:58;;;;;;;7.50;4.38;;;;;;;;;;5495486;26;20483;-83
2024/05/06 00:51:29;;;;;;;8.67;4.80;;;;;;;;;;5464902;27;20348;-83
2024/05/06 00:53:59;;;;;;;5.50;4.50;;;;;;;;;;5463773;27;20262;-83
2024/05/06 00:56:31;;;;;;;6.88;4.50;;;;;;;;;;5467594;27;20529;-83
2024/05/06 00:59:02;;;;;;;9.82;4.72;;;;;;;;;;5502129;26;20005;-83
2024/05/06 01:01:33;;;;;;;8.53;5.07;;;;;;;;;;5471669;27;19994;-83
2024/05/06 01:04:08;;;;;;;8.10;4.97;;;;;;;;;;5501858;27;20281;-83
2024/05/06 01:06:38;;;;;;;6.65;4.70;;;;;;;;;;5502181;27;20013;-83
2024/05/06 01:09:08;;;;;;;6.10;4.60;;;;;;;;;;5501656;26;19994;-83
2024/05/06 01:11:39;;;;;;;8.88;4.80;;;;;;;;;;5502147;27;20016;-83
2024/05/06 01:14:09;;;;;;;7.65;5.05;;;;;;;;;;5501315;27;20009;-83
2024/05/06 01:16:40;;;;;;;5.82;4.32;;;;;;;;;;5502180;27;20014;-83
2024/05/06 01:19:10;;;;;;;6.53;4.80;;;;;;;;;;5471589;27;20017;-83
2024/05/06 01:21:44;;;;;;;10.15;5.10;;;;;;;;;;5501510;27;20008;-83
2024/05/06 01:24:14;;;;;;;7.03;4.40;;;;;;;;;;5501019;27;20079;-83
2024/05/06 01:26:45;;;;;;;14.23;4.70;;;;;;;;;;5469520;26;20010;-83
2024/05/06 01:29:15;;;;;;;5.40;4.27;;;;;;;;;;5502499;27;19998;-83
2024/05/06 01:31:46;;;;;;;5.85;4.53;;;;;;;;;;5502075;27;20447;-83
2024/05/06 01:34:16;;;;;;;5.70;4.72;;;;;;;;;;5500960;27;20008;-83
2024/05/06 01:36:46;;;;;;;7.13;4.78;;;;;;;;;;5500890;26;20008;-83
2024/05/06 01:39:20;;;;;;;9.63;5.03;;;;;;;;;;5500809;27;19994;-83
2024/05/06 01:41:50;;;;;;;5.97;4.40;;;;;;;;;;5470578;27;20050;-83
2024/05/06 01:44:23;;;;;;;5.25;4.28;;;;;;;;;;5469584;27;20041;-83
2024/05/06 01:46:53;;;;;;;5.55;4.30;;;;;;;;;;5470065;26;20016;-83
2024/05/06 01:49:23;;;;;;;6.75;4.20;;;;;;;;;;5501048;27;20336;-83
2024/05/06 01:51:53;;;;;;;5.57;4.35;;;;;;;;;;5500752;27;20001;-83
2024/05/06 01:54:24;;;;;;;4.88;3.95;;;;;;;;;;5456734;27;20170;-83
2024/05/06 01:56:54;;;;;;;5.97;4.35;;;;;;;;;;5500121;26;20009;-83
2024/05/06 01:59:24;;;;;;;10.80;4.50;;;;;;;;;;5487975;27;19997;-83
2024/05/06 02:01:55;;;;;;;7.25;4.32;;;;;;;;;;5470116;27;20466;-83
2024/05/06 02:04:25;;;;;;;5.40;4.00;;;;;;;;;;5500946;27;20440;-83
2024/05/06 02:06:55;;;;;;;7.43;3.80;;;;;;;;;;5500206;26;19996;-83
2024/05/06 02:09:25;;;;;;;5.63;4.22;;;;;;;;;;5465475;27;20008;-83
2024/05/06 02:11:56;;;;;;;5.43;4.15;;;;;;;;;;5496581;27;20002;-83
2024/05/06 02:14:26;;;;;;;6.53;3.88;;;;;;;;;;5496914;27;19998;-83
2024/05/06 02:16:56;;;;;;;5.25;4.10;;;;;;;;;;5496756;26;20002;-83
2024/05/06 02:19:26;;;;;;;7.18;3.97;;;;;;;;;;5497144;27;20005;-83
2024/05/06 02:22:00;;;;;;;4.38;3.50;;;;;;;;;;5496124;27;20010;-82
2024/05/06 02:24:30;;;;;;;7.00;4.13;;;;;;;;;;5496398;27;20001;-83
2024/05/06 02:27:00;;;;;;;5.38;3.60;;;;;;;;;;5496420;26;20008;-83
2024/05/06 02:29:31;;;;;;;5.63;4.22;;;;;;;;;;5496358;27;20355;-83
2024/05/06 02:32:01;;;;;;;6.57;4.50;;;;;;;;;;5495971;27;20006;-82
2024/05/06 02:34:31;;;;;;;6.97;3.80;;;;;;;;;;5496248;27;20002;-83
2024/05/06 02:37:02;;;;;;;5.70;4.07;;;;;;;;;;5496127;26;19997;-83
2024/05/06 02:39:32;;;;;;;5.28;3.80;;;;;;;;;;5497110;27;20001;-83
2024/05/06 02:42:02;;;;;;;6.45;3.65;;;;;;;;;;5496775;27;20008;-82
2024/05/06 02:44:32;;;;;;;5.60;4.25;;;;;;;;;;5496016;27;20001;-83
2024/05/06 02:47:04;;;;;;;6.95;4.20;;;;;;;;;;5496005;26;19998;-83
2024/05/06 02:49:35;;;;;;;7.28;4.40;;;;;;;;;;5496092;27;20004;-83
2024/05/06 02:52:08;;;;;;;5.70;4.70;;;;;;;;;;5496156;27;20365;-83
2024/05/06 02:54:38;;;;;;;6.22;4.28;;;;;;;;;;5494869;27;19997;-83
2024/05/06 02:57:08;;;;;;;8.82;4.65;;;;;;;;;;5495841;26;20478;-83
2024/05/06 02:59:40;;;;;;;5.82;4.40;;;;;;;;;;5495732;27;20008;-83
2024/05/06 03:02:10;;;;;;;6.72;4.85;;;;;;;;;;5465733;27;20001;-83
2024/05/06 03:04:42;;;;;;;6.68;4.57;;;;;;;;;;5495955;27;20004;-83
2024/05/06 03:07:13;;;;;;;8.05;5.13;;;;;;;;;;5496095;26;19997;-83
2024/05/06 03:09:43;;;;;;;7.93;5.32;;;;;;;;;;5495987;27;20008;-83
2024/05/06 03:12:13;;;;;;;8.48;5.75;;;;;;;;;;5496778;27;20008;-83
2024/05/06 03:14:44;;;;;;;8.27;6.43;;;;;;;;;;5496497;27;20004;-83
2024/05/06 03:17:20;;;;;;;10.45;5.80;;;;;;;;;;5465559;27;20068;-82
2024/05/06 03:19:50;;;;;;;9.18;5.70;;;;;;;;;;5495381;27;20361;-83
2024/05/06 03:22:21;;;;;;;8.15;5.82;;;;;;;;;;5495386;27;19994;-82
2024/05/06 03:24:51;;;;;;;8.55;5.70;;;;;;;;;;5495496;27;20056;-83
2024/05/06 03:27:21;;;;;;;10.02;6.38;;;;;;;;;;5496099;26;20009;-83
2024/05/06 03:29:51;;;;;;;12.10;6.80;;;;;;;;;;5498554;27;20089;-83
2024/05/06 03:32:22;;;;;;;10.38;6.38;;;;;;;;;;5496813;27;20002;-83
2024/05/06 03:34:52;;;;;;;9.18;6.80;;;;;;;;;;5495424;27;20001;-83
2024/05/06 03:37:22;;;;;;;10.13;6.60;;;;;;;;;;5495817;26;20075;-83
2024/05/06 03:39:52;;;;;;;8.73;6.38;;;;;;;;;;5495947;27;20005;-83
2024/05/06 03:42:23;;;;;;;9.32;6.70;;;;;;;;;;5465163;27;20001;-83
2024/05/06 03:44:55;;;;;;;10.38;6.68;;;;;;;;;;5495034;27;20367;-83
2024/05/06 03:47:25;;;;;;;10.98;6.63;;;;;;;;;;5495653;26;20013;-83
2024/05/06 03:49:55;;;;;;;10.13;6.80;;;;;;;;;;5495898;27;20471;-83
2024/05/06 03:52:26;;;;;;;11.50;7.57;;;;;;;;;;5496451;27;19993;-83
2024/05/06 03:54:56;;;;;;;14.98;8.25;;;;;;;;;;5494683;27;20001;-83
2024/05/06 03:57:26;;;;;;;11.40;7.80;;;;;;;;;;5464968;27;20005;-83
2024/05/06 03:59:57;;;;;;;10.20;6.90;;;;;;;;;;5495693;27;20436;-83
2024/05/06 04:02:27;;;;;;;12.98;8.20;;;;;;;;;;5495649;27;20071;-83
2024/05/06 04:04:57;;;;;;;10.85;7.68;;;;;;;;;;5463813;27;20456;-82
2024/05/06 04:07:27;;;;;;;10.45;7.57;;;;;;;;;;5465978;27;19997;-83
2024/05/06 04:09:58;;;;;;;12.63;8.13;;;;;;;;;;5576654;21;20020;-81
2024/05/06 04:12:28;;;;;;;11.75;7.78;;;;;;;;;;5495114;27;20008;-81
2024/05/06 04:14:58;;;;;;;14.30;8.40;;;;;;;;;;5494399;27;19993;-81
2024/05/06 04:17:28;;;;;;;9.90;8.15;;;;;;;;;;5494718;26;20004;-81
2024/05/06 04:19:59;;;;;;;12.05;7.80;;;;;;;;;;5494665;27;20005;-82
2024/05/06 04:22:29;;;;;;;12.50;8.20;;;;;;;;;;5495192;27;20063;-81
2024/05/06 04:27:48;;;;;;;11.23;8.63;;;;;;;;;;5494793;26;20061;-81
2024/05/06 04:30:18;;;;;;;11.75;8.52;;;;;;;;;;5494530;27;19997;-81
2024/05/06 04:32:48;;;;;;;12.10;9.07;;;;;;;;;;5494245;27;20001;-82
2024/05/06 04:35:18;;;;;;;13.02;9.02;;;;;;;;;;5493739;27;19994;-81
2024/05/06 04:37:49;;;;;;;14.90;9.50;;;;;;;;;;5494449;26;20378;-81
2024/05/06 04:40:19;;;;;;;12.88;9.18;;;;;;;;;;5494642;27;20462;-82
2024/05/06 04:42:50;;;;;;;13.90;10.20;;;;;;;;;;5494855;27;19993;-82
2024/05/06 04:45:20;;;;;;;15.50;9.77;;;;;;;;;;5495199;27;19997;-81
2024/05/06 04:47:50;;;;;;;13.77;9.93;;;;;;;;;;5494652;26;20013;-81
2024/05/06 04:50:20;;;;;;;14.48;10.32;;;;;;;;;;5494487;27;20052;-81
2024/05/06 04:52:50;;;;;;;15.60;10.40;;;;;;;;;;5494499;27;20317;-82
2024/05/06 04:55:22;;;;;;;17.00;10.75;;;;;;;;;;5463138;27;19997;-82
2024/05/06 04:57:52;;;;;;;18.80;11.13;;;;;;;;;;5494127;26;20423;-81
2024/05/06 05:00:22;;;;;;;15.45;10.98;;;;;;;;;;5493549;27;20029;-84
2024/05/06 05:02:52;;;;;;;14.90;10.80;;;;;;;;;;5493795;27;20423;-84
2024/05/06 05:05:23;;;;;;;19.25;11.10;;;;;;;;;;5492682;27;20006;-84
2024/05/06 05:07:53;;;;;;;14.38;10.77;;;;;;;;;;5493791;26;20229;-83
2024/05/06 05:10:23;;;;;;;16.17;11.18;;;;;;;;;;5493007;27;19998;-83
2024/05/06 05:12:53;;;;;;;15.48;11.50;;;;;;;;;;5493833;27;19993;-83
2024/05/06 05:15:24;;;;;;;16.20;11.38;;;;;;;;;;5492750;27;20017;-83
2024/05/06 05:17:55;;;;;;;18.10;11.38;;;;;;;;;;5492793;26;20005;-83
2024/05/06 05:20:25;;;;;;;15.55;11.68;;;;;;;;;;5493186;27;20380;-83
2024/05/06 05:22:55;;;;;;;17.58;12.15;;;;;;;;;;5493655;27;20002;-83
2024/05/06 05:25:25;;;;;;;16.48;12.07;;;;;;;;;;5492204;27;20340;-82
2024/05/06 05:27:56;;;;;;;17.98;11.80;;;;;;;;;;5493989;26;20375;-83
2024/05/06 05:30:26;;;;;;;16.80;12.55;;;;;;;;;;5492984;27;19990;-83
2024/05/06 05:32:56;;;;;;;16.00;12.02;;;;;;;;;;5493596;27;20009;-83
2024/05/06 05:35:26;;;;;;;18.40;13.27;;;;;;;;;;5492322;27;19993;-83
2024/05/06 05:37:56;;;;;;;25.95;14.30;;;;;;;;;;5492895;26;19994;-83
2024/05/06 05:40:27;;;;;;;18.10;13.95;;;;;;;;;;5493611;27;20002;-83
2024/05/06 05:42:57;;;;;;;17.35;14.00;;;;;;;;;;5464469;27;20018;-83
2024/05/06 05:45:27;;;;;;;17.67;13.65;;;;;;;;;;5496172;27;20000;-81
2024/05/06 05:47:57;;;;;;;17.20;13.13;;;;;;;;;;5467261;27;20005;-83
2024/05/06 05:50:29;;;;;;;19.05;13.82;;;;;;;;;;5464848;27;20053;-83
2024/05/06 05:52:59;;;;;;;19.50;14.68;;;;;;;;;;5462699;27;19997;-83
2024/05/06 05:55:29;;;;;;;20.55;15.50;;;;;;;;;;5496880;27;20009;-83
2024/05/06 05:58:00;;;;;;;20.98;14.25;;;;;;;;;;5497502;26;19997;-83
2024/05/06 06:00:30;;;;;;;17.90;14.73;;;;;;;;;;5497323;27;20013;-83
2024/05/06 06:03:00;;;;;;;20.73;15.95;;;;;;;;;;5466607;27;20017;-83
2024/05/06 06:05:31;;;;;;;20.33;15.52;;;;;;;;;;5497910;27;20009;-82
2024/05/06 06:08:01;;;;;;;19.70;14.95;;;;;;;;;;5497611;26;20005;-83
2024/05/06 06:10:31;;;;;;;19.00;14.98;;;;;;;;;;5497131;27;19997;-83
2024/05/06 06:13:03;;;;;;;20.35;14.80;;;;;;;;;;5497212;27;20002;-83
2024/05/06 06:15:37;;;;;;;24.70;14.80;;;;;;;;;;5497292;27;20001;-83
2024/05/06 06:18:07;;;;;;;19.58;15.32;;;;;;;;;;5497281;26;20013;-83
2024/05/06 06:20:38;;;;;;;21.48;15.23;;;;;;;;;;5497835;27;19997;-83
2024/05/06 06:23:08;;;;;;;19.10;15.65;;;;;;;;;;5496281;27;19993;-84
2024/05/06 06:25:38;;;;;;;22.05;16.20;;;;;;;;;;5466882;27;20008;-83
2024/05/06 06:28:08;;;;;;;22.15;16.35;;;;;;;;;;5496607;26;20336;-83
2024/05/06 06:30:39;;;;;;;20.48;16.63;;;;;;;;;;5497424;27;20375;-83
2024/05/06 06:33:09;;;;;;;23.65;17.30;;;;;;;;;;5496539;27;20439;-83
2024/05/06 06:35:39;;;;;;;21.00;15.98;;;;;;;;;;5496842;27;20002;-83
2024/05/06 06:38:09;;;;;;;23.08;17.10;;;;;;;;;;5496961;26;20001;-83
2024/05/06 06:40:40;;;;;;;20.15;15.30;;;;;;;;;;5495164;27;19998;-83
2024/05/06 06:43:10;;;;;;;22.08;16.63;;;;;;;;;;5496556;27;20008;-83
2024/05/06 06:45:40;;;;;;;19.45;16.13;;;;;;;;;;5497330;27;20013;-83
2024/05/06 06:48:10;;;;;;;20.70;16.03;;;;;;;;;;5497352;26;20002;-83
2024/05/06 06:50:40;;;;;;;20.30;16.30;;;;;;;;;;5497155;27;20009;-82
2024/05/06 06:53:13;;;;;;;20.47;16.10;;;;;;;;;;5496333;27;20436;-83
2024/05/06 06:55:43;;;;;;;20.10;15.88;;;;;;;;;;5496149;27;20009;-83
2024/05/06 06:58:13;;;;;;;18.98;15.00;;;;;;;;;;5466359;27;20248;-83
2024/05/06 07:00:43;;;;;;;21.97;16.70;;;;;;;;;;5466879;27;20458;-84
2024/05/06 07:03:14;;;;;;;19.65;16.02;;;;;;;;;;5496897;27;20001;-83
2024/05/06 07:05:44;;;;;;;18.67;14.40;;;;;;;;;;5496956;27;20010;-83
2024/05/06 07:08:17;;;;;;;21.60;15.25;;;;;;;;;;5496406;26;19994;-83
2024/05/06 07:10:47;;;;;;;20.98;15.25;;;;;;;;;;5496303;27;20357;-83
2024/05/06 07:13:17;;;;;;;18.17;14.63;;;;;;;;;;5465447;27;20002;-83
2024/05/06 07:15:49;;;;;;;18.67;14.20;;;;;;;;;;5495439;27;20005;-83
2024/05/06 07:18:19;;;;;;;17.27;14.23;;;;;;;;;;5495522;27;20636;-83
2024/05/06 07:20:50;;;;;;;19.53;14.60;;;;;;;;;;5495830;27;20005;-82
2024/05/06 07:23:20;;;;;;;17.50;13.60;;;;;;;;;;5494158;27;20005;-83
2024/05/06 07:25:50;;;;;;;16.03;12.57;;;;;;;;;;5465793;27;20024;-83
2024/05/06 07:28:20;;;;;;;18.67;13.70;;;;;;;;;;5489060;26;19998;-83
2024/05/06 07:30:51;;;;;;;16.90;12.37;;;;;;;;;;5495577;27;19994;-83
2024/05/06 07:33:26;;;;;;;18.77;11.23;;;;;;;;;;5466030;27;20012;-83
2024/05/06 07:35:56;;;;;;;17.85;11.93;;;;;;;;;;5495876;27;20000;-83
2024/05/06 07:38:26;;;;;;;20.33;12.20;;;;;;;;;;5493311;27;19994;-83
2024/05/06 07:40:56;;;;;;;15.13;9.20;;;;;;;;;;5495800;27;20339;-82
2024/05/06 07:43:27;;;;;;;13.10;9.77;;;;;;;;;;5463716;27;20076;-83
2024/05/06 07:45:57;;;;;;;12.87;8.60;;;;;;;;;;5495184;27;20482;-83
2024/05/06 07:48:27;;;;;;;11.77;9.40;;;;;;;;;;5496367;27;20477;-83
2024/05/06 07:50:58;;;;;;;16.53;9.20;;;;;;;;;;5496079;27;19986;-83
2024/05/06 07:53:28;;;;;;;12.07;8.43;;;;;;;;;;5495910;27;20466;-82
2024/05/06 07:55:58;;;;;;;11.17;7.43;;;;;;;;;;5496840;27;20067;-81
2024/05/06 07:58:29;;;;;;;11.63;7.47;;;;;;;;;;5495692;27;20004;-82
2024/05/06 08:00:59;;;;;;;13.77;7.27;;;;;;;;;;5495142;27;20071;-83
2024/05/06 08:03:29;;;;;;;8.50;6.37;;;;;;;;;;5465518;27;20217;-80
2024/05/06 08:06:00;;;;;;;8.93;6.27;;;;;;;;;;5494103;27;20029;-82
2024/05/06 08:08:30;;;;;;;12.87;7.17;;;;;;;;;;5465648;27;20332;-83
2024/05/06 08:11:01;;;;;;;8.73;5.40;;;;;;;;;;5494923;27;19998;-80
2024/05/06 08:13:31;;;;;;;12.23;6.73;;;;;;;;;;5494046;27;20001;-82
2024/05/06 08:16:01;;;;;;;8.07;5.70;;;;;;;;;;5495453;27;19989;-78
2024/05/06 08:18:31;;;;;;;8.43;5.43;;;;;;;;;;5496693;27;20008;-81
2024/05/06 08:21:01;;;;;;;7.97;4.90;;;;;;;;;;5497138;27;20067;-82
2024/05/06 08:23:32;;;;;;;7.80;5.40;;;;;;;;;;5496757;27;20455;-80
2024/05/06 08:26:02;;;;;;;9.17;5.50;;;;;;;;;;5496934;27;19989;-80
2024/05/06 08:28:32;;;;;;;8.40;4.93;;;;;;;;;;5496460;27;20005;-80
2024/05/06 08:31:03;;;;;;;8.07;5.47;;;;;;;;;;5496397;27;19997;-80
2024/05/06 08:33:33;;;;;;;7.07;4.60;;;;;;;;;;5465514;27;20005;-81
2024/05/06 08:36:03;;;;;;;6.47;4.53;;;;;;;;;;5496686;27;20064;-81
2024/05/06 08:38:33;;;;;;;6.33;4.20;;;;;;;;;;5498785;27;19993;-78
2024/05/06 08:41:04;;;;;;;7.13;4.50;;;;;;;;;;5497777;27;19990;-80
2024/05/06 08:43:35;;;;;;;10.37;4.83;;;;;;;;;;5496876;27;19994;-79
2024/05/06 08:46:05;;;;;;;8.93;4.77;;;;;;;;;;5495453;27;20465;-80
2024/05/06 08:48:37;;;;;;;6.87;4.60;;;;;;;;;;5494756;27;19990;-80
2024/05/06 08:51:08;;;;;;;7.03;4.30;;;;;;;;;;5494912;27;20010;-80
2024/05/06 08:53:38;;;;;;;8.90;4.32;;;;;;;;;;5464141;27;20005;-80
2024/05/06 08:56:10;;;;;;;7.13;3.90;;;;;;;;;;5494296;27;20063;-80
2024/05/06 08:58:41;;;;;;;6.35;4.30;;;;;;;;;;5494388;27;20005;-81
2024/05/06 09:01:12;;;;;;;7.80;4.27;;;;;;;;;;5494520;27;19998;-80
2024/05/06 09:03:42;;;;;;;6.20;4.13;;;;;;;;;;5493099;27;20452;-82
2024/05/06 09:06:13;;;;;;;4.87;3.70;;;;;;;;;;5494232;27;20013;-80
2024/05/06 09:08:43;;;;;;;5.67;3.67;;;;;;;;;;5494598;27;20021;-81
2024/05/06 09:11:14;;;;;;;5.40;3.57;;;;;;;;;;5494875;27;20502;-80
2024/05/06 09:13:45;;;;;;;5.82;3.50;;;;;;;;;;5464227;27;20001;-81
2024/05/06 09:16:15;;;;;;;5.50;3.83;;;;;;;;;;5494709;27;20009;-80
2024/05/06 09:18:46;;;;;;;7.07;3.43;;;;;;;;;;5497705;27;20008;-79
2024/05/06 09:21:16;;;;;;;7.17;3.70;;;;;;;;;;5498106;27;19994;-79
2024/05/06 09:23:47;;;;;;;5.50;3.70;;;;;;;;;;5498082;27;19998;-79
2024/05/06 09:26:18;;;;;;;6.63;3.50;;;;;;;;;;5498056;27;19990;-79
2024/05/06 09:28:49;;;;;;;;;;;;;;;;;;5498948;27;20000;-80
2024/05/06 09:31:20;;;;;;;5.27;3.50;;;;;;;;;;5498208;27;19933;-79
2024/05/06 09:33:54;;;;;;;5.45;3.67;;;;;;;;;;5498046;27;20269;-80
2024/05/06 09:36:24;;;;;;;5.35;3.85;;;;;;;;;;5498475;27;20012;-80
2024/05/06 09:38:55;;;;;;;5.30;3.37;;;;;;;;;;5498084;27;19997;-81
2024/05/06 09:41:28;;;;;;;6.33;3.83;;;;;;;;;;5497096;27;19997;-81
2024/05/06 09:43:59;;;;;;;5.75;3.70;;;;;;;;;;5496877;27;20008;-81
2024/05/06 09:46:30;;;;;;;10.40;3.90;;;;;;;;;;5467437;27;20454;-81
2024/05/06 09:49:01;;;;;;;5.00;3.60;;;;;;;;;;5497864;27;19997;-80
2024/05/06 09:51:32;;;;;;;4.57;3.30;;;;;;;;;;5497663;27;20486;-81
2024/05/06 09:54:02;;;;;;;4.07;3.20;;;;;;;;;;5496882;27;19994;-81
2024/05/06 09:56:37;;;;;;;7.90;3.67;;;;;;;;;;5497098;27;20355;-81
2024/05/06 09:59:07;;;;;;;5.90;3.45;;;;;;;;;;5497029;27;20002;-80
2024/05/06 10:01:38;;;;;;;4.07;3.20;;;;;;;;;;5497185;27;20406;-81
2024/05/06 10:04:08;;;;;;;7.83;3.33;;;;;;;;;;5497016;27;20063;-81
2024/05/06 10:06:39;;;;;;;4.17;3.33;;;;;;;;;;5496884;27;20030;-81
2024/05/06 10:09:09;;;;;;;3.90;3.50;;;;;;;;;;5500236;21;20009;-82
2024/05/06 10:11:45;;;;;;;4.97;3.47;;;;;;;;;;5532358;26;20012;-83
2024/05/06 10:14:16;;;;;;;6.55;3.53;;;;;;;;;;5517071;26;20016;-83
2024/05/06 10:16:46;;;;;;;5.82;3.47;;;;;;;;;;5500385;26;20365;-83
2024/05/06 10:19:17;;;;;;;6.47;3.03;;;;;;;;;;5466010;27;19997;-83
2024/05/06 10:21:48;;;;;;;11.53;4.00;;;;;;;;;;5496124;27;20075;-83
2024/05/06 10:24:18;;;;;;;6.35;3.67;;;;;;;;;;5464546;27;19997;-83
2024/05/06 10:26:49;;;;;;;5.37;3.60;;;;;;;;;;5495717;26;19993;-84
2024/05/06 10:29:20;;;;;;;5.57;3.47;;;;;;;;;;5464284;27;20017;-83
2024/05/06 10:31:52;;;;;;;4.97;3.37;;;;;;;;;;5465268;27;20005;-83
2024/05/06 10:34:28;;;;;;;5.60;3.30;;;;;;;;;;5465079;27;19998;-84
2024/05/06 10:37:00;;;;;;;4.85;3.50;;;;;;;;;;5495475;26;20001;-83
2024/05/06 10:39:34;;;;;;;5.53;3.42;;;;;;;;;;5465519;27;20002;-83
2024/05/06 10:42:09;;;;;;;7.25;3.50;;;;;;;;;;5465383;27;20044;-83
2024/05/06 10:44:44;;;;;;;5.05;3.60;;;;;;;;;;5464274;27;20017;-84
2024/05/06 10:47:15;;;;;;;5.40;3.45;;;;;;;;;;5495685;26;20009;-83
2024/05/06 10:49:49;;;;;;;5.78;3.40;;;;;;;;;;5465286;27;20021;-83
2024/05/06 10:52:20;;;;;;;6.22;3.75;;;;;;;;;;5482219;27;20005;-83
2024/05/06 10:54:50;;;;;;;7.03;3.77;;;;;;;;;;5494973;27;20078;-83
2024/05/06 10:57:21;;;;;;;6.17;3.77;;;;;;;;;;5495332;26;20004;-82
2024/05/06 10:59:51;;;;;;;7.47;3.13;;;;;;;;;;5464975;27;19998;-83
2024/05/06 11:02:21;;;;;;;4.03;3.07;;;;;;;;;;5466734;27;20018;-84
2024/05/06 11:04:52;;;;;;;4.47;3.00;;;;;;;;;;5495579;27;20016;-82
2024/05/06 11:07:26;;;;;;;6.28;2.72;;;;;;;;;;5495393;26;20006;-83
2024/05/06 11:09:56;;;;;;;5.00;2.40;;;;;;;;;;5466475;27;20331;-83
2024/05/06 11:12:27;;;;;;;7.43;2.60;;;;;;;;;;5495769;27;20001;-83
2024/05/06 11:14:57;;;;;;;3.27;2.70;;;;;;;;;;5494812;27;20002;-83
2024/05/06 11:17:28;;;;;;;6.47;2.83;;;;;;;;;;5496035;26;20008;-84
2024/05/06 11:19:58;;;;;;;5.80;2.67;;;;;;;;;;5503570;27;20041;-86
2024/05/06 11:22:30;;;;;;;5.17;2.97;;;;;;;;;;5498194;27;20014;-82
2024/05/06 11:25:03;;;;;;;5.10;2.83;;;;;;;;;;5464181;27;20006;-82
2024/05/06 11:27:34;;;;;;;6.35;2.90;;;;;;;;;;5464691;27;20343;-83
2024/05/06 11:30:05;;;;;;;4.15;2.88;;;;;;;;;;5495045;27;20001;-82
2024/05/06 11:32:36;;;;;;;3.87;2.97;;;;;;;;;;5494934;27;20379;-83
2024/05/06 11:35:06;;;;;;;5.90;3.20;;;;;;;;;;5494860;27;20012;-82
2024/05/06 11:37:36;;;;;;;4.87;3.40;;;;;;;;;;5494913;26;20332;-82
2024/05/06 11:40:07;;;;;;;4.50;2.90;;;;;;;;;;5464132;27;20001;-83
2024/05/06 11:42:37;;;;;;;4.10;2.90;;;;;;;;;;5495340;27;20001;-84
2024/05/06 11:45:07;;;;;;;3.33;2.80;;;;;;;;;;5464119;27;20013;-83
2024/05/06 11:47:38;;;;;;;4.50;3.10;;;;;;;;;;5494646;26;20042;-82
2024/05/06 11:50:08;;;;;;;5.10;2.87;;;;;;;;;;5494643;27;19994;-82
2024/05/06 11:52:38;;;;;;;5.37;2.67;;;;;;;;;;5499849;27;20001;-84
2024/05/06 11:55:09;;;;;;;6.83;2.73;;;;;;;;;;5499266;27;20097;-82
2024/05/06 11:57:42;;;;;;;5.93;3.10;;;;;;;;;;5501016;26;20079;-84
2024/05/06 12:00:14;;;;;;;4.00;3.17;;;;;;;;;;5512309;27;20037;-83
2024/05/06 12:02:48;;;;;;;4.50;3.15;;;;;;;;;;5509833;27;20443;-84
2024/05/06 12:05:18;;;;;;;5.38;3.28;;;;;;;;;;5504726;27;20505;-82
2024/05/06 12:07:48;;;;;;;4.77;2.87;;;;;;;;;;5502147;26;20006;-83
2024/05/06 12:10:18;;;;;;;3.93;2.60;;;;;;;;;;5504134;27;19993;-84
2024/05/06 12:12:49;;;;;;;5.57;2.70;;;;;;;;;;5499723;27;20009;-84
2024/05/06 12:15:19;;;;;;;5.63;3.20;;;;;;;;;;5502222;27;19994;-84
2024/05/06 12:17:49;;;;;;;4.13;2.90;;;;;;;;;;5470157;27;20083;-84
2024/05/06 12:20:20;;;;;;;5.57;2.80;;;;;;;;;;5501006;27;20010;-84
2024/05/06 12:22:53;;;;;;;3.77;2.80;;;;;;;;;;5463847;27;20017;-82
2024/05/06 12:25:23;;;;;;;5.53;2.80;;;;;;;;;;5493962;27;20343;-82
2024/05/06 12:27:53;;;;;;;4.67;3.30;;;;;;;;;;5494538;26;20005;-83
2024/05/06 12:30:24;;;;;;;4.17;2.90;;;;;;;;;;5494168;27;20460;-82
2024/05/06 12:32:54;;;;;;;4.53;3.10;;;;;;;;;;5494125;27;20395;-82
2024/05/06 12:35:24;;;;;;;4.17;2.90;;;;;;;;;;5463149;27;20010;-82
2024/05/06 12:37:54;;;;;;;4.27;3.00;;;;;;;;;;5494481;26;20446;-82
2024/05/06 12:40:25;;;;;;;4.50;2.90;;;;;;;;;;5463904;27;20009;-81
2024/05/06 12:42:55;;;;;;;3.23;2.60;;;;;;;;;;5494363;27;19997;-82
2024/05/06 12:45:25;;;;;;;5.80;3.17;;;;;;;;;;5493459;27;20371;-83
2024/05/06 12:47:56;;;;;;;4.07;3.37;;;;;;;;;;5463489;27;20005;-82
2024/05/06 12:50:26;;;;;;;8.67;3.93;;;;;;;;;;5493775;27;20071;-82
2024/05/06 12:52:56;;;;;;;4.03;3.00;;;;;;;;;;5466662;27;20502;-83
2024/05/06 12:55:26;;;;;;;5.87;3.17;;;;;;;;;;5498556;27;20064;-84
2024/05/06 12:57:57;;;;;;;6.23;3.27;;;;;;;;;;5499842;26;20010;-83
2024/05/06 13:00:27;;;;;;;4.43;3.20;;;;;;;;;;5499229;27;20026;-84
2024/05/06 13:02:57;;;;;;;4.43;2.93;;;;;;;;;;5498768;27;20012;-84
2024/05/06 13:05:27;;;;;;;3.60;2.70;;;;;;;;;;5498358;27;20006;-82
2024/05/06 13:07:58;;;;;;;5.10;2.90;;;;;;;;;;5469369;27;19997;-84
2024/05/06 13:10:28;;;;;;;4.90;2.67;;;;;;;;;;5469620;27;19997;-82
2024/05/06 13:12:58;;;;;;;4.13;2.77;;;;;;;;;;5500179;27;19993;-84
2024/05/06 13:15:28;;;;;;;4.30;2.80;;;;;;;;;;5498564;27;19998;-84
2024/05/06 13:17:59;;;;;;;4.03;3.03;;;;;;;;;;5499239;26;20333;-83
2024/05/06 13:20:29;;;;;;;5.87;3.03;;;;;;;;;;5484901;27;20059;-83
2024/05/06 13:22:59;;;;;;;3.83;2.80;;;;;;;;;;5493584;27;19989;-82
2024/05/06 13:25:30;;;;;;;4.53;2.90;;;;;;;;;;5462575;27;20006;-83
2024/05/06 13:28:00;;;;;;;3.70;2.87;;;;;;;;;;5462561;27;19997;-82
2024/05/06 13:30:30;;;;;;;5.00;2.90;;;;;;;;;;5463259;27;19997;-82
2024/05/06 13:33:01;;;;;;;8.63;2.90;;;;;;;;;;5462727;27;20002;-81
2024/05/06 13:35:32;;;;;;;9.00;3.30;;;;;;;;;;5493268;27;19998;-83
2024/05/06 13:38:05;;;;;;;5.03;3.10;;;;;;;;;;5497523;26;19998;-84
2024/05/06 13:40:35;;;;;;;5.07;2.97;;;;;;;;;;5498877;27;20229;-83
2024/05/06 13:43:06;;;;;;;4.53;3.07;;;;;;;;;;5498029;27;20080;-83
2024/05/06 13:45:39;;;;;;;4.57;3.00;;;;;;;;;;5497807;27;19998;-84
2024/05/06 13:48:09;;;;;;;3.92;2.88;;;;;;;;;;5498592;26;20002;-83
2024/05/06 13:50:42;;;;;;;4.03;2.80;;;;;;;;;;5498972;27;20339;-84
2024/05/06 13:53:12;;;;;;;5.90;3.10;;;;;;;;;;5492332;27;20013;-81
2024/05/06 13:55:42;;;;;;;5.20;3.20;;;;;;;;;;5492500;27;19998;-82
2024/05/06 13:58:13;;;;;;;3.80;3.13;;;;;;;;;;5491073;26;20001;-82
2024/05/06 14:00:43;;;;;;;4.00;2.93;;;;;;;;;;5491147;27;20012;-83
2024/05/06 14:03:13;;;;;;;5.77;3.40;;;;;;;;;;5461064;27;19993;-83
2024/05/06 14:05:43;;;;;;;3.23;2.90;;;;;;;;;;5495212;27;19998;-83
2024/05/06 14:08:14;;;;;;;5.43;3.13;;;;;;;;;;5494992;26;19998;-83
2024/05/06 14:10:44;;;;;;;5.33;3.20;;;;;;;;;;5494476;27;20325;-81
2024/05/06 14:13:14;;;;;;;5.47;3.50;;;;;;;;;;5494456;27;19997;-82
2024/05/06 14:15:45;;;;;;;6.33;3.70;;;;;;;;;;5494544;27;19998;-82
2024/05/06 14:18:15;;;;;;;5.27;3.20;;;;;;;;;;5464230;27;20002;-82
2024/05/06 14:20:45;;;;;;;7.53;3.80;;;;;;;;;;5501584;26;20002;-82
2024/05/06 14:23:15;;;;;;;6.37;4.00;;;;;;;;;;5466034;27;20001;-82
2024/05/06 14:25:47;;;;;;;5.80;3.60;;;;;;;;;;5497011;27;20472;-82
2024/05/06 14:28:18;;;;;;;6.63;4.00;;;;;;;;;;5466794;27;20056;-83
2024/05/06 14:30:48;;;;;;;5.90;3.10;;;;;;;;;;5465407;27;20010;-83
2024/05/06 14:33:18;;;;;;;5.63;3.50;;;;;;;;;;5464210;27;20005;-82
2024/05/06 14:35:51;;;;;;;4.33;3.13;;;;;;;;;;5495481;27;20016;-82
2024/05/06 14:38:21;;;;;;;5.20;3.50;;;;;;;;;;5495048;26;20008;-82
2024/05/06 14:40:52;;;;;;;5.70;3.40;;;;;;;;;;5494811;27;19998;-81
2024/05/06 14:43:22;;;;;;;5.93;3.50;;;;;;;;;;5494506;27;19998;-82
2024/05/06 14:45:53;;;;;;;7.90;3.47;;;;;;;;;;5494846;27;20057;-82
2024/05/06 14:48:23;;;;;;;8.07;4.00;;;;;;;;;;5463797;27;19997;-82
2024/05/06 14:50:54;;;;;;;7.10;4.10;;;;;;;;;;5496291;27;20396;-86
2024/05/06 14:53:24;;;;;;;10.90;4.63;;;;;;;;;;5496546;27;20071;-84
2024/05/06 14:55:54;;;;;;;10.90;5.10;;;;;;;;;;5493924;27;20002;-84
2024/05/06 14:58:25;;;;;;;7.37;4.80;;;;;;;;;;5494117;26;20005;-84